Vinton, LA

9:18 PM CDT on September 04, 2015 (GMT -0500)
KENT ON WALTER HILL | | Change Station
CLOSE
Current Station
Personal Weather Station
Location: Vinton, LA
Elevation: 30 ft
Nearby Weather Stations

Elev 30 ft 30.20 °N, 93.58 °W | Updated 0 second ago

Clear
Clear
79.7 °F
Feels Like 86 °F
N
0.0
Wind Variable Wind from North
Gusts 0.0 mph

Today
High -- | Low -- °F
--% Chance of Precip.
Yesterday
High -- | Low -- °F
Precip. -- in
6:52 AM 7:33 PM
Waning Gibbous, 53% visible
Pressure 29.96 in
Visibility 10.0 miles
Clouds Clear
Heat Index 86 °F
Dew Point 80 °F
Humidity 99%
Rainfall 0.60 in
Snow Depth Not available.
UV 0 out of 12
Pollen 6.60 out of 12
Air Quality Not available.
Flu Activity Not available.
METAR KUXL 050155Z AUTO 18003KT 10SM CLR 28/25 A2996 RMK AO2 T02750254
Pressure 29.96 in
Visibility 10.0 miles
Clouds Clear
Heat Index 86 °F
Dew Point 80 °F
Humidity 99%
Rainfall 0.60 in
Snow Depth Not available.
UV 0 out of 12
Pollen 6.60 out of 12
Air Quality Not available.
Flu Activity Not available.
METAR KUXL 050155Z AUTO 18003KT 10SM CLR 28/25 A2996 RMK AO2 T02750254

10-Day Weather Forecast

×

Almanac

Astronomy

Sep. 04, 2015 Rise Set
Actual Time
Civil Twilight
Nautical Twilight
Astronomical Twilight
Moon
Length of Visible Light
Length of Day
Tomorrow will be .
, % of the Moon is Illuminated

Today's Extremes

State Highs State Lows

Community

WunderPhotos

Upload Photos

1,852,384 photos uploaded!

WunderBlogs® & News

Nearby

Air Quality

  Air Quality AQ Index Pollutant
Not available.

Snow Depth

Station Depth Elevation

Earthquake Activity

City Distance Mag. Time & Date
Minimum magnitude displayed is 2.5.

Coastal Water Temperatures

Place Temperature

Stations

Nearby Weather Stations

Station Location Temp. Windchill Dew Point Humidity Wind Precip. Elev Updated Type